sensor_id;sensor_type;location;lat;lon;timestamp;temperature;humidity
4910;DHT22;2470;49.868;8.660;2023-02-18T00:02:17;12.40;99.90
4910;DHT22;2470;49.868;8.660;2023-02-18T00:04:42;12.30;99.90
4910;DHT22;2470;49.868;8.660;2023-02-18T00:07:08;12.30;99.90
4910;DHT22;2470;49.868;8.660;2023-02-18T00:09:33;12.30;99.90
4910;DHT22;2470;49.868;8.660;2023-02-18T00:11:59;12.30;99.90
4910;DHT22;2470;49.868;8.660;2023-02-18T00:14:24;12.30;99.90
4910;DHT22;2470;49.868;8.660;2023-02-18T00:16:50;12.20;99.90
4910;DHT22;2470;49.868;8.660;2023-02-18T00:19:18;12.30;99.90
4910;DHT22;2470;49.868;8.660;2023-02-18T00:21:43;12.20;99.90
4910;DHT22;2470;49.868;8.660;2023-02-18T00:24:12;12.20;99.90
4910;DHT22;2470;49.868;8.660;2023-02-18T00:26:39;12.20;99.90
4910;DHT22;2470;49.868;8.660;2023-02-18T00:29:05;12.20;99.90
4910;DHT22;2470;49.868;8.660;2023-02-18T00:31:34;12.20;99.90
4910;DHT22;2470;49.868;8.660;2023-02-18T00:34:01;12.20;99.90
4910;DHT22;2470;49.868;8.660;2023-02-18T00:36:28;12.10;99.90
4910;DHT22;2470;49.868;8.660;2023-02-18T00:38:56;12.10;99.90
4910;DHT22;2470;49.868;8.660;2023-02-18T00:41:24;12.10;99.90
4910;DHT22;2470;49.868;8.660;2023-02-18T00:43:50;12.10;99.90
4910;DHT22;2470;49.868;8.660;2023-02-18T00:46:16;12.10;99.90
4910;DHT22;2470;49.868;8.660;2023-02-18T00:48:41;12.10;99.90
4910;DHT22;2470;49.868;8.660;2023-02-18T00:51:07;12.10;99.90
4910;DHT22;2470;49.868;8.660;2023-02-18T00:53:33;12.00;99.90
4910;DHT22;2470;49.868;8.660;2023-02-18T00:55:59;12.00;99.90
4910;DHT22;2470;49.868;8.660;2023-02-18T00:58:25;12.00;99.90
4910;DHT22;2470;49.868;8.660;2023-02-18T01:00:51;12.00;99.90
4910;DHT22;2470;49.868;8.660;2023-02-18T01:03:17;12.00;99.90
4910;DHT22;2470;49.868;8.660;2023-02-18T01:05:43;12.00;99.90
4910;DHT22;2470;49.868;8.660;2023-02-18T01:08:09;12.00;99.90
4910;DHT22;2470;49.868;8.660;2023-02-18T01:10:38;12.00;99.90
4910;DHT22;2470;49.868;8.660;2023-02-18T01:13:04;12.00;99.90
4910;DHT22;2470;49.868;8.660;2023-02-18T01:15:30;12.00;99.90
4910;DHT22;2470;49.868;8.660;2023-02-18T01:17:56;12.00;99.90
4910;DHT22;2470;49.868;8.660;2023-02-18T01:20:21;12.00;99.90
4910;DHT22;2470;49.868;8.660;2023-02-18T01:22:47;11.90;99.90
4910;DHT22;2470;49.868;8.660;2023-02-18T01:25:14;11.90;99.90
4910;DHT22;2470;49.868;8.660;2023-02-18T01:27:39;11.90;99.90
4910;DHT22;2470;49.868;8.660;2023-02-18T01:30:10;11.90;99.90
4910;DHT22;2470;49.868;8.660;2023-02-18T01:32:37;11.90;99.90
4910;DHT22;2470;49.868;8.660;2023-02-18T01:35:04;11.90;99.90
4910;DHT22;2470;49.868;8.660;2023-02-18T01:37:30;11.90;99.90
4910;DHT22;2470;49.868;8.660;2023-02-18T01:39:56;11.90;99.90
4910;DHT22;2470;49.868;8.660;2023-02-18T01:42:24;11.90;99.90
4910;DHT22;2470;49.868;8.660;2023-02-18T01:44:50;11.90;99.90
4910;DHT22;2470;49.868;8.660;2023-02-18T01:47:17;12.00;99.90
4910;DHT22;2470;49.868;8.660;2023-02-18T01:49:47;11.90;99.90
4910;DHT22;2470;49.868;8.660;2023-02-18T01:52:20;12.00;99.90
4910;DHT22;2470;49.868;8.660;2023-02-18T01:54:50;12.00;99.90
4910;DHT22;2470;49.868;8.660;2023-02-18T01:57:21;12.00;99.90
4910;DHT22;2470;49.868;8.660;2023-02-18T01:59:51;11.90;99.90
4910;DHT22;2470;49.868;8.660;2023-02-18T02:02:27;11.90;99.90
4910;DHT22;2470;49.868;8.660;2023-02-18T02:04:53;11.90;99.90
4910;DHT22;2470;49.868;8.660;2023-02-18T02:07:21;11.90;99.90
4910;DHT22;2470;49.868;8.660;2023-02-18T02:09:48;11.90;99.90
4910;DHT22;2470;49.868;8.660;2023-02-18T02:12:24;11.90;99.90
4910;DHT22;2470;49.868;8.660;2023-02-18T02:15:40;11.90;99.90
4910;DHT22;2470;49.868;8.660;2023-02-18T02:18:33;12.00;99.90
4910;DHT22;2470;49.868;8.660;2023-02-18T02:23:58;11.90;99.90
4910;DHT22;2470;49.868;8.660;2023-02-18T02:32:00;11.90;99.90
4910;DHT22;2470;49.868;8.660;2023-02-18T02:40:25;11.90;99.90
4910;DHT22;2470;49.868;8.660;2023-02-18T02:46:09;11.90;99.90
4910;DHT22;2470;49.868;8.660;2023-02-18T02:48:56;11.90;99.90
4910;DHT22;2470;49.868;8.660;2023-02-18T02:51:31;11.90;99.90
4910;DHT22;2470;49.868;8.660;2023-02-18T02:54:13;11.90;99.90
4910;DHT22;2470;49.868;8.660;2023-02-18T02:56:38;11.90;99.90
4910;DHT22;2470;49.868;8.660;2023-02-18T02:59:08;11.90;99.90
4910;DHT22;2470;49.868;8.660;2023-02-18T03:06:58;11.90;99.90
4910;DHT22;2470;49.868;8.660;2023-02-18T03:15:07;11.90;99.90
4910;DHT22;2470;49.868;8.660;2023-02-18T03:17:59;11.90;99.90
4910;DHT22;2470;49.868;8.660;2023-02-18T03:20:33;11.90;99.90
4910;DHT22;2470;49.868;8.660;2023-02-18T03:23:01;11.90;99.90
4910;DHT22;2470;49.868;8.660;2023-02-18T03:25:29;11.90;99.90
4910;DHT22;2470;49.868;8.660;2023-02-18T03:27:58;11.90;99.90
4910;DHT22;2470;49.868;8.660;2023-02-18T03:30:45;11.90;99.90
4910;DHT22;2470;49.868;8.660;2023-02-18T03:33:16;12.00;99.90
4910;DHT22;2470;49.868;8.660;2023-02-18T03:35:42;11.90;99.90
4910;DHT22;2470;49.868;8.660;2023-02-18T03:38:17;11.90;99.90
4910;DHT22;2470;49.868;8.660;2023-02-18T03:40:44;11.90;99.90
4910;DHT22;2470;49.868;8.660;2023-02-18T03:43:10;11.90;99.90
4910;DHT22;2470;49.868;8.660;2023-02-18T03:45:35;12.00;99.90
4910;DHT22;2470;49.868;8.660;2023-02-18T03:48:01;11.90;99.90
4910;DHT22;2470;49.868;8.660;2023-02-18T03:50:26;11.90;99.90
4910;DHT22;2470;49.868;8.660;2023-02-18T03:52:52;11.90;99.90
4910;DHT22;2470;49.868;8.660;2023-02-18T03:55:17;11.90;99.90
4910;DHT22;2470;49.868;8.660;2023-02-18T03:57:43;11.90;99.90
4910;DHT22;2470;49.868;8.660;2023-02-18T04:00:09;12.00;99.90
4910;DHT22;2470;49.868;8.660;2023-02-18T04:02:35;12.00;99.90
4910;DHT22;2470;49.868;8.660;2023-02-18T04:05:01;12.00;99.90
4910;DHT22;2470;49.868;8.660;2023-02-18T04:07:26;12.00;99.90
4910;DHT22;2470;49.868;8.660;2023-02-18T04:09:52;12.00;99.90
4910;DHT22;2470;49.868;8.660;2023-02-18T04:12:18;12.00;99.90
4910;DHT22;2470;49.868;8.660;2023-02-18T04:14:43;12.00;99.90
4910;DHT22;2470;49.868;8.660;2023-02-18T04:17:09;12.00;99.90
4910;DHT22;2470;49.868;8.660;2023-02-18T04:19:34;12.00;99.90
4910;DHT22;2470;49.868;8.660;2023-02-18T04:22:00;12.00;99.90
4910;DHT22;2470;49.868;8.660;2023-02-18T04:24:26;12.00;99.90
4910;DHT22;2470;49.868;8.660;2023-02-18T04:26:51;12.00;99.90
4910;DHT22;2470;49.868;8.660;2023-02-18T04:29:17;12.00;99.90
4910;DHT22;2470;49.868;8.660;2023-02-18T04:31:42;12.00;99.90
4910;DHT22;2470;49.868;8.660;2023-02-18T04:34:08;11.90;99.90
4910;DHT22;2470;49.868;8.660;2023-02-18T04:36:33;11.90;99.90
4910;DHT22;2470;49.868;8.660;2023-02-18T04:38:59;11.90;99.90
4910;DHT22;2470;49.868;8.660;2023-02-18T04:41:25;11.90;99.90
4910;DHT22;2470;49.868;8.660;2023-02-18T04:43:50;11.90;99.90
4910;DHT22;2470;49.868;8.660;2023-02-18T04:46:16;11.90;99.90
4910;DHT22;2470;49.868;8.660;2023-02-18T04:48:42;11.80;99.90
4910;DHT22;2470;49.868;8.660;2023-02-18T04:51:07;11.90;99.90
4910;DHT22;2470;49.868;8.660;2023-02-18T04:53:33;11.90;99.90
4910;DHT22;2470;49.868;8.660;2023-02-18T04:55:59;11.90;99.90
4910;DHT22;2470;49.868;8.660;2023-02-18T04:58:24;11.90;99.90
4910;DHT22;2470;49.868;8.660;2023-02-18T05:00:50;11.90;99.90
4910;DHT22;2470;49.868;8.660;2023-02-18T05:03:16;11.90;99.90
4910;DHT22;2470;49.868;8.660;2023-02-18T05:05:42;11.90;99.90
4910;DHT22;2470;49.868;8.660;2023-02-18T05:08:08;11.90;99.90
4910;DHT22;2470;49.868;8.660;2023-02-18T05:10:33;11.90;99.90
4910;DHT22;2470;49.868;8.660;2023-02-18T05:12:59;11.90;99.90
4910;DHT22;2470;49.868;8.660;2023-02-18T05:15:25;11.90;99.90
4910;DHT22;2470;49.868;8.660;2023-02-18T05:17:50;11.90;99.90
4910;DHT22;2470;49.868;8.660;2023-02-18T05:20:16;11.90;99.90
4910;DHT22;2470;49.868;8.660;2023-02-18T05:22:41;11.90;99.90
4910;DHT22;2470;49.868;8.660;2023-02-18T05:25:07;11.90;99.90
4910;DHT22;2470;49.868;8.660;2023-02-18T05:27:33;11.90;99.90
4910;DHT22;2470;49.868;8.660;2023-02-18T05:29:59;11.90;99.90
4910;DHT22;2470;49.868;8.660;2023-02-18T05:32:24;11.90;99.90
4910;DHT22;2470;49.868;8.660;2023-02-18T05:34:50;11.90;99.90
4910;DHT22;2470;49.868;8.660;2023-02-18T05:37:15;11.90;99.90
4910;DHT22;2470;49.868;8.660;2023-02-18T05:39:43;11.90;99.90
4910;DHT22;2470;49.868;8.660;2023-02-18T05:42:09;11.90;99.90
4910;DHT22;2470;49.868;8.660;2023-02-18T05:44:34;11.90;99.90
4910;DHT22;2470;49.868;8.660;2023-02-18T05:47:03;11.90;99.90
4910;DHT22;2470;49.868;8.660;2023-02-18T05:49:30;11.90;99.90
4910;DHT22;2470;49.868;8.660;2023-02-18T05:51:56;11.80;99.90
4910;DHT22;2470;49.868;8.660;2023-02-18T05:54:22;11.90;99.90
4910;DHT22;2470;49.868;8.660;2023-02-18T05:56:48;11.90;99.90
4910;DHT22;2470;49.868;8.660;2023-02-18T05:59:13;11.80;99.90
4910;DHT22;2470;49.868;8.660;2023-02-18T06:01:39;11.90;99.90
4910;DHT22;2470;49.868;8.660;2023-02-18T06:04:05;11.80;99.90
4910;DHT22;2470;49.868;8.660;2023-02-18T06:06:30;11.90;99.90
4910;DHT22;2470;49.868;8.660;2023-02-18T06:08:56;11.80;99.90
4910;DHT22;2470;49.868;8.660;2023-02-18T06:11:22;11.80;99.90
4910;DHT22;2470;49.868;8.660;2023-02-18T06:13:47;11.80;99.90
4910;DHT22;2470;49.868;8.660;2023-02-18T06:16:13;11.80;99.90
4910;DHT22;2470;49.868;8.660;2023-02-18T06:18:38;11.80;99.90
4910;DHT22;2470;49.868;8.660;2023-02-18T06:21:04;11.80;99.90
4910;DHT22;2470;49.868;8.660;2023-02-18T06:23:29;11.80;99.90
4910;DHT22;2470;49.868;8.660;2023-02-18T06:25:55;11.80;99.90
4910;DHT22;2470;49.868;8.660;2023-02-18T06:28:20;11.80;99.90
4910;DHT22;2470;49.868;8.660;2023-02-18T06:30:46;11.80;99.90
4910;DHT22;2470;49.868;8.660;2023-02-18T06:33:12;11.80;99.90
4910;DHT22;2470;49.868;8.660;2023-02-18T06:35:38;11.80;99.90
4910;DHT22;2470;49.868;8.660;2023-02-18T06:38:03;11.80;99.90
4910;DHT22;2470;49.868;8.660;2023-02-18T06:40:29;11.80;99.90
4910;DHT22;2470;49.868;8.660;2023-02-18T06:42:54;11.80;99.90
4910;DHT22;2470;49.868;8.660;2023-02-18T06:45:20;11.80;99.90
4910;DHT22;2470;49.868;8.660;2023-02-18T06:47:45;11.80;99.90
4910;DHT22;2470;49.868;8.660;2023-02-18T06:50:11;11.90;99.90
4910;DHT22;2470;49.868;8.660;2023-02-18T06:52:36;11.90;99.90
4910;DHT22;2470;49.868;8.660;2023-02-18T06:55:04;11.90;99.90
4910;DHT22;2470;49.868;8.660;2023-02-18T06:57:30;11.90;99.90
4910;DHT22;2470;49.868;8.660;2023-02-18T06:59:55;11.90;99.90
4910;DHT22;2470;49.868;8.660;2023-02-18T07:02:21;11.90;99.90
4910;DHT22;2470;49.868;8.660;2023-02-18T07:04:47;11.90;99.90
4910;DHT22;2470;49.868;8.660;2023-02-18T07:07:12;11.90;99.90
4910;DHT22;2470;49.868;8.660;2023-02-18T07:09:38;11.90;99.90
4910;DHT22;2470;49.868;8.660;2023-02-18T07:12:03;11.90;99.90
4910;DHT22;2470;49.868;8.660;2023-02-18T07:14:29;11.90;99.90
4910;DHT22;2470;49.868;8.660;2023-02-18T07:16:54;11.90;99.90
4910;DHT22;2470;49.868;8.660;2023-02-18T07:19:20;11.90;99.90
4910;DHT22;2470;49.868;8.660;2023-02-18T07:21:45;11.90;99.90
4910;DHT22;2470;49.868;8.660;2023-02-18T07:24:12;11.90;99.90
4910;DHT22;2470;49.868;8.660;2023-02-18T07:26:37;11.90;99.90
4910;DHT22;2470;49.868;8.660;2023-02-18T07:29:03;12.00;99.90
4910;DHT22;2470;49.868;8.660;2023-02-18T07:31:28;11.90;99.90
4910;DHT22;2470;49.868;8.660;2023-02-18T07:33:54;12.00;99.90
4910;DHT22;2470;49.868;8.660;2023-02-18T07:36:19;12.00;99.90
4910;DHT22;2470;49.868;8.660;2023-02-18T07:38:45;12.00;99.90
4910;DHT22;2470;49.868;8.660;2023-02-18T07:41:16;12.00;99.90
4910;DHT22;2470;49.868;8.660;2023-02-18T07:43:43;12.00;99.90
4910;DHT22;2470;49.868;8.660;2023-02-18T07:46:09;12.00;99.90
4910;DHT22;2470;49.868;8.660;2023-02-18T07:48:34;12.00;99.90
4910;DHT22;2470;49.868;8.660;2023-02-18T07:51:04;11.90;99.90
4910;DHT22;2470;49.868;8.660;2023-02-18T07:53:29;11.90;99.90
4910;DHT22;2470;49.868;8.660;2023-02-18T07:55:57;11.90;99.90
4910;DHT22;2470;49.868;8.660;2023-02-18T07:58:27;11.90;99.90
4910;DHT22;2470;49.868;8.660;2023-02-18T08:00:53;11.90;99.90
4910;DHT22;2470;49.868;8.660;2023-02-18T08:03:22;12.00;99.90
4910;DHT22;2470;49.868;8.660;2023-02-18T08:05:48;12.00;99.90
4910;DHT22;2470;49.868;8.660;2023-02-18T08:08:17;12.00;99.90
4910;DHT22;2470;49.868;8.660;2023-02-18T08:10:44;12.00;99.90
4910;DHT22;2470;49.868;8.660;2023-02-18T08:13:10;12.00;99.90
4910;DHT22;2470;49.868;8.660;2023-02-18T08:15:36;12.10;99.90
4910;DHT22;2470;49.868;8.660;2023-02-18T08:18:03;12.10;99.90
4910;DHT22;2470;49.868;8.660;2023-02-18T08:20:28;12.10;99.90
4910;DHT22;2470;49.868;8.660;2023-02-18T08:22:54;12.00;99.90
4910;DHT22;2470;49.868;8.660;2023-02-18T08:25:19;12.10;99.90
4910;DHT22;2470;49.868;8.660;2023-02-18T08:27:45;12.00;99.90
4910;DHT22;2470;49.868;8.660;2023-02-18T08:30:11;12.10;99.90
4910;DHT22;2470;49.868;8.660;2023-02-18T08:32:36;12.10;99.90
4910;DHT22;2470;49.868;8.660;2023-02-18T08:35:02;12.10;99.90
4910;DHT22;2470;49.868;8.660;2023-02-18T08:37:28;12.10;99.90
4910;DHT22;2470;49.868;8.660;2023-02-18T08:39:53;12.10;99.90
4910;DHT22;2470;49.868;8.660;2023-02-18T08:42:19;12.10;99.90
4910;DHT22;2470;49.868;8.660;2023-02-18T08:44:45;12.20;99.90
4910;DHT22;2470;49.868;8.660;2023-02-18T08:47:10;12.10;99.90
4910;DHT22;2470;49.868;8.660;2023-02-18T08:49:36;12.10;99.90
4910;DHT22;2470;49.868;8.660;2023-02-18T08:52:02;12.10;99.90
4910;DHT22;2470;49.868;8.660;2023-02-18T08:54:28;12.10;99.90
4910;DHT22;2470;49.868;8.660;2023-02-18T08:56:54;12.10;99.90
4910;DHT22;2470;49.868;8.660;2023-02-18T08:59:22;12.10;99.90
4910;DHT22;2470;49.868;8.660;2023-02-18T09:01:48;12.20;99.90
4910;DHT22;2470;49.868;8.660;2023-02-18T09:04:13;12.20;99.90
4910;DHT22;2470;49.868;8.660;2023-02-18T09:06:39;12.20;99.90
4910;DHT22;2470;49.868;8.660;2023-02-18T09:09:05;12.10;99.90
4910;DHT22;2470;49.868;8.660;2023-02-18T09:11:31;12.10;99.90
4910;DHT22;2470;49.868;8.660;2023-02-18T09:13:57;12.10;99.90
4910;DHT22;2470;49.868;8.660;2023-02-18T09:16:23;12.10;99.90
4910;DHT22;2470;49.868;8.660;2023-02-18T09:18:48;12.10;99.90
4910;DHT22;2470;49.868;8.660;2023-02-18T09:21:15;12.10;99.90
4910;DHT22;2470;49.868;8.660;2023-02-18T09:23:41;12.10;99.90
4910;DHT22;2470;49.868;8.660;2023-02-18T09:26:08;12.10;99.90
4910;DHT22;2470;49.868;8.660;2023-02-18T09:28:35;12.20;99.90
4910;DHT22;2470;49.868;8.660;2023-02-18T09:31:12;12.20;99.90
4910;DHT22;2470;49.868;8.660;2023-02-18T09:33:40;12.20;99.90
4910;DHT22;2470;49.868;8.660;2023-02-18T09:36:06;12.30;99.90
4910;DHT22;2470;49.868;8.660;2023-02-18T09:38:32;12.40;99.90
4910;DHT22;2470;49.868;8.660;2023-02-18T09:40:59;12.50;99.90
4910;DHT22;2470;49.868;8.660;2023-02-18T09:43:35;12.50;99.90
4910;DHT22;2470;49.868;8.660;2023-02-18T09:46:04;12.50;99.90
4910;DHT22;2470;49.868;8.660;2023-02-18T09:48:35;12.60;99.90
4910;DHT22;2470;49.868;8.660;2023-02-18T09:51:02;12.60;99.90
4910;DHT22;2470;49.868;8.660;2023-02-18T09:53:28;12.50;99.90
4910;DHT22;2470;49.868;8.660;2023-02-18T09:55:55;12.40;99.90
4910;DHT22;2470;49.868;8.660;2023-02-18T09:58:28;12.50;99.90
4910;DHT22;2470;49.868;8.660;2023-02-18T10:01:27;12.50;99.90
4910;DHT22;2470;49.868;8.660;2023-02-18T10:03:57;12.50;99.90
4910;DHT22;2470;49.868;8.660;2023-02-18T10:06:28;12.50;99.90
4910;DHT22;2470;49.868;8.660;2023-02-18T10:08:55;12.60;99.90
4910;DHT22;2470;49.868;8.660;2023-02-18T10:11:29;12.60;99.90
4910;DHT22;2470;49.868;8.660;2023-02-18T10:13:56;12.70;99.90
4910;DHT22;2470;49.868;8.660;2023-02-18T10:16:24;12.70;99.90
4910;DHT22;2470;49.868;8.660;2023-02-18T10:18:53;12.70;99.90
4910;DHT22;2470;49.868;8.660;2023-02-18T10:21:24;12.80;99.90
4910;DHT22;2470;49.868;8.660;2023-02-18T10:24:03;12.80;99.90
4910;DHT22;2470;49.868;8.660;2023-02-18T10:26:30;12.90;99.90
4910;DHT22;2470;49.868;8.660;2023-02-18T10:28:58;13.00;99.90
4910;DHT22;2470;49.868;8.660;2023-02-18T10:31:31;13.00;99.90
4910;DHT22;2470;49.868;8.660;2023-02-18T10:34:11;13.10;99.90
4910;DHT22;2470;49.868;8.660;2023-02-18T10:36:45;13.20;99.90
4910;DHT22;2470;49.868;8.660;2023-02-18T10:42:05;13.20;99.90
4910;DHT22;2470;49.868;8.660;2023-02-18T10:47:42;13.10;99.90
4910;DHT22;2470;49.868;8.660;2023-02-18T10:50:22;13.10;99.90
4910;DHT22;2470;49.868;8.660;2023-02-18T10:52:51;12.90;99.90
4910;DHT22;2470;49.868;8.660;2023-02-18T10:55:37;12.80;99.90
4910;DHT22;2470;49.868;8.660;2023-02-18T10:58:05;12.80;99.90
4910;DHT22;2470;49.868;8.660;2023-02-18T11:00:59;12.80;99.90
4910;DHT22;2470;49.868;8.660;2023-02-18T11:03:38;13.00;99.90
4910;DHT22;2470;49.868;8.660;2023-02-18T11:06:13;13.10;99.90
4910;DHT22;2470;49.868;8.660;2023-02-18T11:08:43;13.20;99.90
4910;DHT22;2470;49.868;8.660;2023-02-18T11:11:15;13.00;99.90
4910;DHT22;2470;49.868;8.660;2023-02-18T11:13:41;12.90;99.90
4910;DHT22;2470;49.868;8.660;2023-02-18T11:16:07;12.90;99.90
4910;DHT22;2470;49.868;8.660;2023-02-18T11:18:38;12.70;99.90
4910;DHT22;2470;49.868;8.660;2023-02-18T11:21:29;12.60;99.90
4910;DHT22;2470;49.868;8.660;2023-02-18T11:23:56;12.60;99.90
4910;DHT22;2470;49.868;8.660;2023-02-18T11:26:29;12.50;99.90
4910;DHT22;2470;49.868;8.660;2023-02-18T11:29:42;12.50;99.90
4910;DHT22;2470;49.868;8.660;2023-02-18T11:31:50;12.40;99.90
4910;DHT22;2470;49.868;8.660;2023-02-18T11:34:20;12.50;99.90
4910;DHT22;2470;49.868;8.660;2023-02-18T11:36:47;12.40;99.90
4910;DHT22;2470;49.868;8.660;2023-02-18T11:39:19;12.30;99.90
4910;DHT22;2470;49.868;8.660;2023-02-18T11:41:53;12.40;99.90
4910;DHT22;2470;49.868;8.660;2023-02-18T11:44:30;12.40;99.90
4910;DHT22;2470;49.868;8.660;2023-02-18T11:49:39;12.40;99.90
4910;DHT22;2470;49.868;8.660;2023-02-18T11:52:32;12.40;99.90
4910;DHT22;2470;49.868;8.660;2023-02-18T11:57:28;12.40;99.90
4910;DHT22;2470;49.868;8.660;2023-02-18T11:59:53;12.40;99.90
4910;DHT22;2470;49.868;8.660;2023-02-18T12:07:24;12.50;99.90
4910;DHT22;2470;49.868;8.660;2023-02-18T12:09:54;12.50;99.90
4910;DHT22;2470;49.868;8.660;2023-02-18T12:12:26;12.50;99.90
4910;DHT22;2470;49.868;8.660;2023-02-18T12:14:55;12.60;99.90
4910;DHT22;2470;49.868;8.660;2023-02-18T12:17:48;12.70;99.90
4910;DHT22;2470;49.868;8.660;2023-02-18T12:20:48;12.70;99.90
4910;DHT22;2470;49.868;8.660;2023-02-18T12:23:37;12.70;99.90
4910;DHT22;2470;49.868;8.660;2023-02-18T12:37:11;12.60;99.90
4910;DHT22;2470;49.868;8.660;2023-02-18T12:40:16;12.70;99.90
4910;DHT22;2470;49.868;8.660;2023-02-18T12:58:55;12.50;99.90
4910;DHT22;2470;49.868;8.660;2023-02-18T13:01:32;12.50;99.90
4910;DHT22;2470;49.868;8.660;2023-02-18T13:12:59;12.50;99.90
4910;DHT22;2470;49.868;8.660;2023-02-18T13:17:43;12.60;99.90
4910;DHT22;2470;49.868;8.660;2023-02-18T13:20:19;12.60;99.90
4910;DHT22;2470;49.868;8.660;2023-02-18T13:22:46;12.60;99.90
4910;DHT22;2470;49.868;8.660;2023-02-18T13:25:15;12.60;99.90
4910;DHT22;2470;49.868;8.660;2023-02-18T13:28:06;12.60;99.90
4910;DHT22;2470;49.868;8.660;2023-02-18T13:30:44;12.60;99.90
4910;DHT22;2470;49.868;8.660;2023-02-18T13:33:22;12.60;99.90
4910;DHT22;2470;49.868;8.660;2023-02-18T13:36:11;12.60;99.90
4910;DHT22;2470;49.868;8.660;2023-02-18T13:38:53;12.70;99.90
4910;DHT22;2470;49.868;8.660;2023-02-18T13:41:21;12.70;99.90
4910;DHT22;2470;49.868;8.660;2023-02-18T13:43:47;12.70;99.90
4910;DHT22;2470;49.868;8.660;2023-02-18T13:46:13;12.70;99.90
4910;DHT22;2470;49.868;8.660;2023-02-18T13:48:52;12.60;99.90
4910;DHT22;2470;49.868;8.660;2023-02-18T13:51:33;12.60;99.90
4910;DHT22;2470;49.868;8.660;2023-02-18T13:57:06;12.60;99.90
4910;DHT22;2470;49.868;8.660;2023-02-18T13:59:35;12.70;99.90
4910;DHT22;2470;49.868;8.660;2023-02-18T14:12:42;12.50;99.90
4910;DHT22;2470;49.868;8.660;2023-02-18T14:17:51;12.40;99.90
4910;DHT22;2470;49.868;8.660;2023-02-18T14:31:01;12.50;99.90
4910;DHT22;2470;49.868;8.660;2023-02-18T14:33:30;12.50;99.90
4910;DHT22;2470;49.868;8.660;2023-02-18T14:38:47;12.50;99.90
4910;DHT22;2470;49.868;8.660;2023-02-18T14:41:37;12.40;99.90
4910;DHT22;2470;49.868;8.660;2023-02-18T14:44:41;12.30;99.90
4910;DHT22;2470;49.868;8.660;2023-02-18T14:47:54;12.30;99.90
4910;DHT22;2470;49.868;8.660;2023-02-18T14:50:24;12.20;99.90
4910;DHT22;2470;49.868;8.660;2023-02-18T14:52:56;12.20;99.90
4910;DHT22;2470;49.868;8.660;2023-02-18T14:55:26;12.20;99.90
4910;DHT22;2470;49.868;8.660;2023-02-18T14:57:58;12.20;99.90
4910;DHT22;2470;49.868;8.660;2023-02-18T15:00:26;12.20;99.90
4910;DHT22;2470;49.868;8.660;2023-02-18T15:02:57;12.10;99.90
4910;DHT22;2470;49.868;8.660;2023-02-18T15:05:26;12.00;99.90
4910;DHT22;2470;49.868;8.660;2023-02-18T15:08:04;12.10;99.90
4910;DHT22;2470;49.868;8.660;2023-02-18T15:10:38;12.10;99.90
4910;DHT22;2470;49.868;8.660;2023-02-18T15:13:28;12.10;99.90
4910;DHT22;2470;49.868;8.660;2023-02-18T15:15:55;12.10;99.90
4910;DHT22;2470;49.868;8.660;2023-02-18T15:18:24;12.10;99.90
4910;DHT22;2470;49.868;8.660;2023-02-18T15:20:51;12.10;99.90
4910;DHT22;2470;49.868;8.660;2023-02-18T15:23:17;12.20;99.90
4910;DHT22;2470;49.868;8.660;2023-02-18T15:25:51;12.10;99.90
4910;DHT22;2470;49.868;8.660;2023-02-18T15:28:22;12.10;99.90
4910;DHT22;2470;49.868;8.660;2023-02-18T15:30:47;12.20;99.90
4910;DHT22;2470;49.868;8.660;2023-02-18T15:33:15;12.10;99.90
4910;DHT22;2470;49.868;8.660;2023-02-18T15:35:42;12.20;99.90
4910;DHT22;2470;49.868;8.660;2023-02-18T15:38:16;12.20;99.90
4910;DHT22;2470;49.868;8.660;2023-02-18T15:40:45;12.20;99.90
4910;DHT22;2470;49.868;8.660;2023-02-18T15:43:17;12.20;99.90
4910;DHT22;2470;49.868;8.660;2023-02-18T15:45:44;12.20;99.90
4910;DHT22;2470;49.868;8.660;2023-02-18T15:48:34;12.30;99.90
4910;DHT22;2470;49.868;8.660;2023-02-18T15:51:10;12.30;99.90
4910;DHT22;2470;49.868;8.660;2023-02-18T15:53:41;12.30;99.90
4910;DHT22;2470;49.868;8.660;2023-02-18T15:56:14;12.30;99.90
4910;DHT22;2470;49.868;8.660;2023-02-18T15:58:42;12.30;99.90
4910;DHT22;2470;49.868;8.660;2023-02-18T16:01:25;12.30;99.90
4910;DHT22;2470;49.868;8.660;2023-02-18T16:03:54;12.20;99.90
4910;DHT22;2470;49.868;8.660;2023-02-18T16:09:12;12.30;99.90
4910;DHT22;2470;49.868;8.660;2023-02-18T16:11:46;12.30;99.90
4910;DHT22;2470;49.868;8.660;2023-02-18T16:14:32;12.20;99.90
4910;DHT22;2470;49.868;8.660;2023-02-18T16:17:13;12.20;99.90
4910;DHT22;2470;49.868;8.660;2023-02-18T16:19:52;12.20;99.90
4910;DHT22;2470;49.868;8.660;2023-02-18T16:25:24;12.20;99.90
4910;DHT22;2470;49.868;8.660;2023-02-18T16:30:22;12.20;99.90
4910;DHT22;2470;49.868;8.660;2023-02-18T16:32:48;12.20;99.90
4910;DHT22;2470;49.868;8.660;2023-02-18T16:35:14;12.10;99.90
4910;DHT22;2470;49.868;8.660;2023-02-18T16:37:41;12.10;99.90
4910;DHT22;2470;49.868;8.660;2023-02-18T16:42:51;12.10;99.90
4910;DHT22;2470;49.868;8.660;2023-02-18T16:45:18;12.10;99.90
4910;DHT22;2470;49.868;8.660;2023-02-18T16:47:45;12.10;99.90
4910;DHT22;2470;49.868;8.660;2023-02-18T16:50:21;12.10;99.90
4910;DHT22;2470;49.868;8.660;2023-02-18T16:52:47;12.10;99.90
4910;DHT22;2470;49.868;8.660;2023-02-18T16:55:19;12.10;99.90
4910;DHT22;2470;49.868;8.660;2023-02-18T16:57:45;12.00;99.90
4910;DHT22;2470;49.868;8.660;2023-02-18T17:00:11;12.00;99.90
4910;DHT22;2470;49.868;8.660;2023-02-18T17:02:37;11.90;99.90
4910;DHT22;2470;49.868;8.660;2023-02-18T17:05:03;12.00;99.90
4910;DHT22;2470;49.868;8.660;2023-02-18T17:07:28;11.90;99.90
4910;DHT22;2470;49.868;8.660;2023-02-18T17:09:59;11.90;99.90
4910;DHT22;2470;49.868;8.660;2023-02-18T17:12:25;11.90;99.90
4910;DHT22;2470;49.868;8.660;2023-02-18T17:14:51;11.90;99.90
4910;DHT22;2470;49.868;8.660;2023-02-18T17:17:17;11.80;99.90
4910;DHT22;2470;49.868;8.660;2023-02-18T17:19:46;11.90;99.90
4910;DHT22;2470;49.868;8.660;2023-02-18T17:22:13;11.80;99.90
4910;DHT22;2470;49.868;8.660;2023-02-18T17:24:38;11.80;99.90
4910;DHT22;2470;49.868;8.660;2023-02-18T17:27:04;11.80;99.90
4910;DHT22;2470;49.868;8.660;2023-02-18T17:29:30;11.80;99.90
4910;DHT22;2470;49.868;8.660;2023-02-18T17:31:55;11.80;99.90
4910;DHT22;2470;49.868;8.660;2023-02-18T17:34:27;11.80;99.90
4910;DHT22;2470;49.868;8.660;2023-02-18T17:36:55;11.80;99.90
4910;DHT22;2470;49.868;8.660;2023-02-18T17:39:20;11.80;99.90
4910;DHT22;2470;49.868;8.660;2023-02-18T17:41:46;11.80;99.90
4910;DHT22;2470;49.868;8.660;2023-02-18T17:44:16;11.80;99.90
4910;DHT22;2470;49.868;8.660;2023-02-18T17:46:42;11.70;99.90
4910;DHT22;2470;49.868;8.660;2023-02-18T17:49:08;11.70;99.90
4910;DHT22;2470;49.868;8.660;2023-02-18T17:51:34;11.70;99.90
4910;DHT22;2470;49.868;8.660;2023-02-18T17:54:01;11.70;99.90
4910;DHT22;2470;49.868;8.660;2023-02-18T17:56:27;11.70;99.90
4910;DHT22;2470;49.868;8.660;2023-02-18T17:58:52;11.70;99.90
4910;DHT22;2470;49.868;8.660;2023-02-18T18:01:18;11.70;99.90
4910;DHT22;2470;49.868;8.660;2023-02-18T18:03:45;11.70;99.90
4910;DHT22;2470;49.868;8.660;2023-02-18T18:06:19;11.60;99.90
4910;DHT22;2470;49.868;8.660;2023-02-18T18:08:45;11.60;99.90
4910;DHT22;2470;49.868;8.660;2023-02-18T18:11:21;11.60;99.90
4910;DHT22;2470;49.868;8.660;2023-02-18T18:13:47;11.60;99.90
4910;DHT22;2470;49.868;8.660;2023-02-18T18:16:14;11.70;99.90
4910;DHT22;2470;49.868;8.660;2023-02-18T18:18:40;11.60;99.90
4910;DHT22;2470;49.868;8.660;2023-02-18T18:21:17;11.60;99.90